Terminal Aerodrome Forecast
Issued by NWS Twin Cities, MN

Home | Current Version | Previous Version | Text Only | Print | Product List | Glossary Off
Versions: 1 2 3 4 5 6 7 8 9 10 11 12 13 14 15 16 17 18 19 20 21 22 23 24 25 26 27 28 29 30

000
FTUS43 KMPX 092052 AAA
TAFMSP
TAF AMD
KMSP 092052Z 0921/1024 29007KT P6SM BKN028 BKN250
     FM092330 26006KT P6SM FEW030 BKN150
     FM100300 20006KT P6SM OVC100
     FM100700 23006KT P6SM SCT030 BKN150
     FM101200 31008KT P6SM BKN035
     FM102100 29006KT P6SM SCT035 BKN150=

USA.gov is the U.S. government's official web portal to all federal, state and local government web resources and services.